Time;durP1;ratioP1;P1;durP2;ratioP2;P2;SDS_P1;SDS_P2;PMS_P1;PMS_P2;Temp;Humidity;BMP_temperature;BMP_pressure;BME280_temperature;BME280_humidity;BME280_pressure;Samples;Min_cycle;Max_cycle;Signal;HPM_P1;HPM_P2
2021/12/03 00:00:54;;;;;;;;;32.00;29.00;;;;;1.89;81.28;101038.75;5107495;27;45263;-78
2021/12/03 00:03:20;;;;;;;;;35.00;32.50;;;;;1.82;80.92;101032.28;5107912;27;45388;-77
2021/12/03 00:05:45;;;;;;;;;26.75;24.25;;;;;1.77;80.65;101018.69;5107412;27;45247;-78
2021/12/03 00:08:11;;;;;;;;;26.00;25.50;;;;;1.74;80.40;101019.72;5140259;27;48185;-77
2021/12/03 00:10:38;;;;;;;;;26.00;24.75;;;;;1.70;80.54;101017.41;5106030;27;45558;-77
2021/12/03 00:13:05;;;;;;;;;25.00;22.75;;;;;1.70;81.04;101031.38;5101162;27;45580;-75
2021/12/03 00:15:31;;;;;;;;;27.25;27.25;;;;;1.63;80.63;101012.66;5100720;27;45219;-75
2021/12/03 00:17:57;;;;;;;;;22.75;22.25;;;;;1.57;80.99;101018.31;5100622;27;45635;-75
2021/12/03 00:20:25;;;;;;;;;23.00;22.00;;;;;1.64;81.60;101034.41;5101026;27;45371;-75
2021/12/03 00:22:53;;;;;;;;;22.00;22.00;;;;;1.60;81.32;101025.97;5100983;27;45333;-75
2021/12/03 00:25:19;;;;;;;;;25.75;24.75;;;;;1.54;81.53;101017.69;5099335;27;45480;-75
2021/12/03 00:27:45;;;;;;;;;26.50;23.50;;;;;1.62;81.39;101028.47;5103521;27;46289;-78
2021/12/03 00:30:12;;;;;;;;;20.00;20.00;;;;;1.59;81.69;101023.44;5105445;27;45401;-78
2021/12/03 00:32:38;;;;;;;;;27.00;23.50;;;;;1.56;81.69;101029.72;5106052;27;45308;-77
2021/12/03 00:35:05;;;;;;;;;20.50;20.50;;;;;1.56;82.22;101042.00;5104404;27;45901;-77
2021/12/03 00:37:31;;;;;;;;;20.50;20.50;;;;;1.62;81.54;101039.78;5104343;27;48611;-77
2021/12/03 00:39:57;;;;;;;;;22.75;22.75;;;;;1.60;81.18;101039.06;5102219;27;45741;-75
2021/12/03 00:42:23;;;;;;;;;30.50;24.75;;;;;1.54;81.57;101026.38;5116477;27;45296;-75
2021/12/03 00:44:54;;;;;;;;;30.75;27.75;;;;;1.54;81.80;101034.25;5119318;27;46356;-75
2021/12/03 00:47:20;;;;;;;;;29.00;27.00;;;;;1.45;81.73;101017.41;5120921;27;45632;-75
2021/12/03 00:49:45;;;;;;;;;32.00;28.75;;;;;1.50;81.22;101032.78;5119556;27;45386;-75
2021/12/03 00:52:11;;;;;;;;;25.25;25.25;;;;;1.57;81.20;101047.13;5119747;27;45357;-75
2021/12/03 00:54:37;;;;;;;;;25.75;24.25;;;;;1.47;81.13;101030.38;5119541;27;47309;-75
2021/12/03 00:57:03;;;;;;;;;17.50;17.50;;;;;1.57;82.14;101049.75;5121268;27;46299;-77
2021/12/03 00:59:29;;;;;;;;;22.50;18.25;;;;;1.57;81.24;101054.16;5126233;27;45269;-77
2021/12/03 01:01:54;;;;;;;;;21.75;18.75;;;;;1.46;81.92;101042.63;5124974;27;45302;-78
2021/12/03 01:04:20;;;;;;;;;27.25;25.00;;;;;1.51;81.20;101058.88;5126397;27;45440;-78
2021/12/03 01:06:45;;;;;;;;;22.25;21.25;;;;;1.51;81.61;101050.19;5123333;27;47003;-78
2021/12/03 01:09:11;;;;;;;;;22.25;21.25;;;;;1.60;81.52;101065.25;5124418;27;45893;-78
2021/12/03 01:11:36;;;;;;;;;21.25;20.50;;;;;1.52;81.62;101054.47;5121569;27;45297;-75
2021/12/03 01:14:02;;;;;;;;;23.00;22.25;;;;;1.50;81.72;101056.38;5120550;27;45413;-75
2021/12/03 01:16:29;;;;;;;;;31.75;27.75;;;;;1.58;81.24;101061.91;5119215;27;47183;-75
2021/12/03 01:18:55;;;;;;;;;31.25;31.00;;;;;1.56;81.27;101052.47;5120381;27;45377;-75
2021/12/03 01:21:21;;;;;;;;;23.00;21.50;;;;;1.53;81.51;101053.53;5119550;27;45224;-75
2021/12/03 01:23:47;;;;;;;;;20.25;19.25;;;;;1.44;80.97;101043.69;5120566;27;45312;-75
2021/12/03 01:26:13;;;;;;;;;21.75;21.25;;;;;1.51;81.33;101068.53;5119637;27;48338;-77
2021/12/03 01:28:39;;;;;;;;;28.00;26.25;;;;;1.51;81.34;101071.13;5123231;27;45905;-77
2021/12/03 01:31:05;;;;;;;;;26.25;24.25;;;;;1.50;81.04;101064.22;5122542;27;45179;-77
2021/12/03 01:33:31;;;;;;;;;22.75;20.75;;;;;1.54;81.29;101065.69;5122109;27;47352;-77
2021/12/03 01:35:56;;;;;;;;;21.75;21.75;;;;;1.62;81.72;101075.63;5122927;27;45356;-77
2021/12/03 01:38:22;;;;;;;;;26.50;25.75;;;;;1.67;80.99;101078.75;5121480;27;45343;-78
2021/12/03 01:40:48;;;;;;;;;21.00;18.25;;;;;1.59;81.52;101068.81;5115330;27;45356;-76
2021/12/03 01:43:20;;;;;;;;;25.50;21.00;;;;;1.57;82.24;101070.72;5100134;27;45916;-78
2021/12/03 01:45:46;;;;;;;;;22.75;21.25;;;;;1.32;81.49;101030.50;5099750;27;48236;-78
2021/12/03 01:48:11;;;;;;;;;23.25;22.00;;;;;1.57;81.37;101080.34;5099614;27;45370;-78
2021/12/03 01:50:42;;;;;;;;;23.50;20.75;;;;;1.59;82.01;101073.22;5099966;27;45375;-78
2021/12/03 01:53:10;;;;;;;;;19.75;19.75;;;;;1.51;81.48;101073.75;5099452;27;47283;-78
2021/12/03 01:55:36;;;;;;;;;27.50;24.25;;;;;1.49;81.23;101073.88;5098458;27;47424;-76
2021/12/03 01:58:03;;;;;;;;;17.50;15.00;;;;;1.56;81.37;101083.91;5098839;27;45623;-78
2021/12/03 02:00:33;;;;;;;;;25.25;25.25;;;;;1.49;81.44;101071.25;5098888;27;45420;-78
2021/12/03 02:02:59;;;;;;;;;20.25;20.00;;;;;1.65;81.10;101091.16;5098998;27;45945;-78
2021/12/03 02:05:25;;;;;;;;;23.25;21.75;;;;;1.62;81.48;101079.06;5100513;27;45286;-78
2021/12/03 02:07:51;;;;;;;;;26.00;25.75;;;;;1.67;81.51;101085.81;5098725;27;45828;-78
2021/12/03 02:10:19;;;;;;;;;23.75;22.75;;;;;1.61;80.58;101066.09;5101177;27;45294;-78
2021/12/03 02:12:45;;;;;;;;;26.75;24.00;;;;;1.69;81.00;101081.28;5101496;27;47085;-76
2021/12/03 02:15:12;;;;;;;;;25.25;23.25;;;;;1.72;81.52;101078.44;5100966;27;48005;-76
2021/12/03 02:17:38;;;;;;;;;25.25;21.75;;;;;1.70;81.98;101077.69;5101312;27;46035;-76
2021/12/03 02:20:06;;;;;;;;;42.25;36.25;;;;;1.60;81.09;101062.66;5102837;27;45163;-76
2021/12/03 02:22:32;;;;;;;;;50.25;38.00;;;;;1.66;81.84;101079.72;5101286;27;46513;-76
2021/12/03 02:24:57;;;;;;;;;40.50;36.25;;;;;1.56;81.48;101057.72;5101027;27;47089;-76
2021/12/03 02:27:23;;;;;;;;;36.75;35.75;;;;;1.63;81.93;101066.81;5101481;27;45333;-77
2021/12/03 02:29:48;;;;;;;;;34.75;31.50;;;;;1.70;81.71;101081.16;5101852;27;46108;-77
2021/12/03 02:32:13;;;;;;;;;27.25;26.00;;;;;1.67;80.94;101076.13;5101921;27;45853;-78
2021/12/03 02:34:39;;;;;;;;;22.00;22.00;;;;;1.63;81.01;101067.66;5101909;27;48480;-78
2021/12/03 02:37:05;;;;;;;;;29.50;27.75;;;;;1.73;81.59;101078.34;5101951;27;45335;-77
2021/12/03 02:39:30;;;;;;;;;27.75;25.50;;;;;1.75;81.46;101068.59;5101889;27;45409;-76
2021/12/03 02:41:56;;;;;;;;;25.00;25.00;;;;;1.82;81.72;101079.47;5114241;27;46910;-76
2021/12/03 02:44:21;;;;;;;;;31.50;27.50;;;;;1.76;81.34;101072.03;5122121;27;47097;-77
2021/12/03 02:46:47;;;;;;;;;31.75;30.50;;;;;1.83;81.33;101075.88;5122539;27;45332;-77
2021/12/03 02:49:14;;;;;;;;;29.25;27.00;;;;;1.87;81.62;101073.91;5122747;27;45344;-77
2021/12/03 02:51:41;;;;;;;;;33.75;30.25;;;;;1.84;81.05;101067.09;5122692;27;47247;-77
2021/12/03 02:54:07;;;;;;;;;31.00;29.25;;;;;1.83;81.40;101069.81;5122562;27;47068;-77
2021/12/03 02:56:32;;;;;;;;;32.75;32.50;;;;;1.79;81.68;101057.91;5121774;27;45318;-76
2021/12/03 02:58:58;;;;;;;;;27.50;23.25;;;;;1.91;81.26;101066.66;5122155;27;45433;-78
2021/12/03 03:01:23;;;;;;;;;27.75;26.50;;;;;1.93;81.41;101062.13;5123177;27;46141;-78
2021/12/03 03:03:49;;;;;;;;;34.00;31.00;;;;;1.97;82.12;101058.34;5124106;27;45408;-78
2021/12/03 03:06:14;;;;;;;;;31.25;29.75;;;;;2.03;81.77;101051.84;5122617;27;45400;-77
2021/12/03 03:08:41;;;;;;;;;28.25;27.50;;;;;2.02;81.86;101040.50;5124066;27;45265;-78
2021/12/03 03:11:07;;;;;;;;;35.75;35.25;;;;;2.06;81.47;101039.34;5122918;27;45530;-76
2021/12/03 03:13:34;;;;;;;;;31.75;31.75;;;;;2.00;81.81;101018.78;5122234;27;46108;-75
2021/12/03 03:16:03;;;;;;;;;30.00;26.75;;;;;2.10;81.57;101032.91;5123005;27;45184;-77
2021/12/03 03:18:29;;;;;;;;;31.75;28.00;;;;;2.04;81.63;101020.28;5122953;27;45296;-76
2021/12/03 03:20:57;;;;;;;;;30.25;29.50;;;;;2.11;82.04;101033.75;5120649;27;45912;-76
2021/12/03 03:23:23;;;;;;;;;26.50;24.50;;;;;2.10;82.49;101027.66;5123113;27;45336;-75
2021/12/03 03:25:49;;;;;;;;;27.00;24.75;;;;;2.12;82.28;101022.31;5121377;27;45266;-77
2021/12/03 03:28:18;;;;;;;;;24.50;22.75;;;;;2.14;81.73;101023.91;5120921;27;45285;-76
2021/12/03 03:30:46;;;;;;;;;28.50;27.50;;;;;2.17;82.26;101035.94;5120605;27;46114;-76
2021/12/03 03:33:13;;;;;;;;;27.75;24.75;;;;;2.23;82.53;101040.75;5122070;27;45443;-76
2021/12/03 03:35:38;;;;;;;;;31.25;28.75;;;;;2.21;82.18;101039.19;5121522;27;45175;-78
2021/12/03 03:38:04;;;;;;;;;23.25;22.00;;;;;2.19;81.88;101039.31;5123508;27;45247;-78
2021/12/03 03:40:30;;;;;;;;;23.00;23.00;;;;;2.16;81.57;101034.28;5122087;27;46554;-78
2021/12/03 03:43:00;;;;;;;;;29.50;28.00;;;;;2.08;81.66;101018.25;5102819;27;48177;-78
2021/12/03 03:45:27;;;;;;;;;28.25;26.00;;;;;2.16;82.26;101039.53;5101869;27;45480;-78
2021/12/03 03:47:52;;;;;;;;;25.00;24.00;;;;;2.11;82.42;101026.75;5101637;27;45297;-76
2021/12/03 03:50:19;;;;;;;;;27.00;24.25;;;;;2.06;82.01;101023.59;5102643;27;45218;-78
2021/12/03 03:52:45;;;;;;;;;23.50;23.25;;;;;2.12;81.89;101038.03;5104523;27;45673;-78
2021/12/03 03:55:13;;;;;;;;;23.00;20.25;;;;;1.98;81.50;101011.03;5103853;27;45301;-78
2021/12/03 03:57:39;;;;;;;;;22.00;18.50;;;;;2.11;81.97;101039.84;5103274;27;45446;-78
2021/12/03 04:00:07;;;;;;;;;24.50;21.50;;;;;2.04;82.57;101024.66;5102570;27;45327;-78
2021/12/03 04:02:33;;;;;;;;;21.00;21.00;;;;;2.02;82.66;101019.53;5102257;27;48461;-76
2021/12/03 04:04:58;;;;;;;;;25.00;20.00;;;;;1.98;82.23;101018.91;5134166;27;45829;-76
2021/12/03 04:07:24;;;;;;;;;28.00;23.50;;;;;1.99;81.92;101017.97;5134292;27;45283;-76
2021/12/03 04:09:49;;;;;;;;;22.50;21.75;;;;;1.93;82.46;101015.78;5100944;27;45309;-76
2021/12/03 04:12:14;;;;;;;;;23.75;23.75;;;;;1.97;82.76;101008.53;5100883;27;45534;-76
2021/12/03 04:14:40;;;;;;;;;24.25;23.50;;;;;2.04;82.30;101009.78;5100679;27;45278;-76
2021/12/03 04:17:05;;;;;;;;;25.25;22.25;;;;;1.96;82.57;100991.97;5099623;27;45325;-75
2021/12/03 04:19:30;;;;;;;;;22.25;19.50;;;;;2.03;82.72;100992.34;5101133;27;45999;-77
2021/12/03 04:21:56;;;;;;;;;24.50;23.25;;;;;1.95;82.31;100990.28;5104420;27;47400;-77
2021/12/03 04:24:22;;;;;;;;;22.75;20.50;;;;;2.01;82.81;101004.75;5104590;27;45189;-77
2021/12/03 04:26:48;;;;;;;;;26.00;24.50;;;;;2.01;82.87;101010.81;5106085;27;45366;-77
2021/12/03 04:29:13;;;;;;;;;22.75;20.50;;;;;2.05;82.76;101021.94;5102432;27;46362;-77
2021/12/03 04:31:38;;;;;;;;;24.00;21.50;;;;;2.14;82.54;101036.16;5102208;27;47450;-77
2021/12/03 04:34:04;;;;;;;;;21.75;21.00;;;;;2.08;82.29;101026.97;5099625;27;45311;-76
2021/12/03 04:36:29;;;;;;;;;21.00;20.75;;;;;2.17;82.71;101035.09;5099249;27;45334;-76
2021/12/03 04:38:54;;;;;;;;;27.75;25.75;;;;;2.05;82.70;101016.69;5099294;27;46403;-76
2021/12/03 04:41:20;;;;;;;;;22.25;18.50;;;;;2.07;83.06;101029.69;5108896;27;46181;-75
2021/12/03 04:43:45;;;;;;;;;28.25;24.50;;;;;2.10;83.03;101032.91;5120430;27;45284;-75
2021/12/03 04:46:11;;;;;;;;;26.00;24.00;;;;;2.05;82.50;101019.31;5121312;27;45288;-75
2021/12/03 04:48:36;;;;;;;;;22.50;21.50;;;;;2.04;82.86;101022.03;5119489;27;45255;-75
2021/12/03 04:51:02;;;;;;;;;20.00;20.00;;;;;2.12;82.16;101032.78;5123677;27;47943;-78
2021/12/03 04:53:27;;;;;;;;;22.25;22.25;;;;;2.04;82.56;101022.03;5123694;27;45239;-78
2021/12/03 04:55:53;;;;;;;;;24.50;20.50;;;;;2.00;82.64;101017.03;5124883;27;45337;-78
2021/12/03 04:58:19;;;;;;;;;22.25;21.00;;;;;2.02;81.81;101014.28;5124489;27;45498;-78
2021/12/03 05:00:53;;;;;;;;;21.50;19.50;;;;;2.04;82.73;101020.28;5122879;27;47241;-78
2021/12/03 05:03:20;;;;;;;;;26.25;26.25;;;;;2.03;82.36;101017.75;5120482;27;46068;-75
2021/12/03 05:05:53;;;;;;;;;22.00;19.50;;;;;1.94;82.48;101006.97;5124762;27;45312;-77
2021/12/03 05:08:19;;;;;;;;;23.25;21.50;;;;;1.98;82.75;101016.28;5123089;27;47443;-78
2021/12/03 05:10:44;;;;;;;;;23.00;19.75;;;;;1.96;82.91;101012.09;5122529;27;48430;-78
2021/12/03 05:13:13;;;;;;;;;19.00;19.00;;;;;1.95;82.65;101011.25;5121612;27;45424;-79
2021/12/03 05:15:39;;;;;;;;;22.75;22.75;;;;;1.83;82.73;100988.56;5119098;27;45431;-78
2021/12/03 05:18:06;;;;;;;;;19.75;19.75;;;;;1.92;83.20;101014.13;5118931;27;46124;-77
2021/12/03 05:20:32;;;;;;;;;21.50;21.50;;;;;1.87;82.91;101003.13;5120627;27;46397;-77
2021/12/03 05:22:59;;;;;;;;;22.25;20.50;;;;;1.91;82.71;101011.63;5117027;27;45211;-77
2021/12/03 05:25:25;;;;;;;;;18.25;17.50;;;;;1.97;82.91;101003.28;5100238;27;45159;-77
2021/12/03 05:27:52;;;;;;;;;23.00;21.25;;;;;1.92;82.84;100981.81;5098388;27;46394;-77
2021/12/03 05:30:17;;;;;;;;;23.00;21.75;;;;;1.97;83.07;100985.78;5097816;27;46585;-77
2021/12/03 05:32:43;;;;;;;;;18.25;18.25;;;;;2.01;82.44;100981.16;5098261;27;45314;-77
2021/12/03 05:35:10;;;;;;;;;24.25;20.25;;;;;1.97;82.81;100979.69;5098551;27;45328;-78
2021/12/03 05:37:35;;;;;;;;;20.50;18.75;;;;;2.01;83.01;100986.41;5099720;27;45451;-78
2021/12/03 05:40:02;;;;;;;;;22.50;18.75;;;;;2.06;83.07;100991.31;5098056;27;48493;-78
2021/12/03 05:42:28;;;;;;;;;20.75;18.75;;;;;2.07;82.83;100988.59;5098003;27;45329;-78
2021/12/03 05:44:54;;;;;;;;;23.50;21.75;;;;;2.13;83.14;100993.34;5101280;27;45277;-78
2021/12/03 05:47:19;;;;;;;;;19.25;19.25;;;;;2.16;82.89;100994.09;5101418;27;46615;-77
2021/12/03 05:49:45;;;;;;;;;20.25;19.75;;;;;2.17;82.56;100982.63;5101217;27;46870;-79
2021/12/03 05:52:10;;;;;;;;;20.25;15.75;;;;;2.17;82.89;100966.91;5101361;27;45418;-77
2021/12/03 05:54:36;;;;;;;;;16.50;16.50;;;;;2.16;82.59;100960.84;5102019;27;45319;-77
2021/12/03 05:57:02;;;;;;;;;24.75;22.25;;;;;2.22;83.22;100965.59;5101655;27;46143;-77
2021/12/03 05:59:27;;;;;;;;;22.25;20.75;;;;;2.24;82.90;100973.38;5103947;27;47055;-76
2021/12/03 06:01:52;;;;;;;;;20.75;16.75;;;;;2.11;82.85;100945.44;5102339;27;45682;-76
2021/12/03 06:04:18;;;;;;;;;22.75;19.00;;;;;2.24;82.37;100961.09;5101881;27;45779;-75
2021/12/03 06:06:43;;;;;;;;;23.50;20.50;;;;;2.14;83.50;100931.25;5101665;27;46219;-75
2021/12/03 06:09:09;;;;;;;;;20.00;18.50;;;;;2.25;82.81;100927.84;5100472;27;48281;-76
2021/12/03 06:11:34;;;;;;;;;14.25;14.25;;;;;2.30;83.30;100922.25;5102872;27;45348;-77
2021/12/03 06:13:59;;;;;;;;;19.00;17.75;;;;;2.38;83.15;100936.47;5102913;27;45347;-76
2021/12/03 06:16:25;;;;;;;;;50.50;43.25;;;;;2.40;82.64;100939.78;5102397;27;45374;-76
2021/12/03 06:18:50;;;;;;;;;46.50;40.75;;;;;2.37;82.78;100934.78;5100753;27;47508;-76
2021/12/03 06:21:17;;;;;;;;;21.25;21.25;;;;;2.35;82.86;100939.31;5102736;27;45346;-76
2021/12/03 06:23:42;;;;;;;;;20.00;18.75;;;;;2.49;82.76;100961.88;5101482;27;45305;-74
2021/12/03 06:26:08;;;;;;;;;16.25;15.25;;;;;2.46;82.99;100943.75;5102596;27;45499;-75
2021/12/03 06:28:36;;;;;;;;;17.75;13.75;;;;;2.54;82.79;100958.91;5102478;27;45714;-74
2021/12/03 06:31:03;;;;;;;;;16.75;16.75;;;;;2.49;82.70;100951.38;5102609;27;45228;-74
2021/12/03 06:33:28;;;;;;;;;17.25;16.00;;;;;2.49;82.90;100956.63;5102534;27;45370;-74
2021/12/03 06:35:54;;;;;;;;;15.50;15.50;;;;;2.58;82.93;100968.25;5101056;27;47139;-74
2021/12/03 06:38:19;;;;;;;;;18.25;16.25;;;;;2.51;82.24;100949.47;5101098;27;48048;-75
2021/12/03 06:40:46;;;;;;;;;16.75;16.75;;;;;2.63;82.39;100968.72;5104661;27;45673;-75
2021/12/03 06:43:12;;;;;;;;;18.50;14.25;;;;;2.69;82.79;100963.97;5123131;27;45262;-77
2021/12/03 06:45:38;;;;;;;;;15.25;14.75;;;;;2.64;82.48;100944.13;5122466;27;45289;-78
2021/12/03 06:48:04;;;;;;;;;13.75;13.50;;;;;2.67;83.05;100948.31;5121475;27;47181;-78
2021/12/03 06:50:32;;;;;;;;;16.00;15.25;;;;;2.68;82.18;100938.66;5121591;27;45953;-77
2021/12/03 06:53:10;;;;;;;;;18.75;15.00;;;;;2.72;82.70;100950.59;5122950;27;45353;-76
2021/12/03 06:55:58;;;;;;;;;13.00;11.50;;;;;2.71;83.19;100923.50;5121748;27;45367;-76
2021/12/03 06:58:24;;;;;;;;;14.00;14.00;;;;;2.75;82.13;100927.56;5122545;27;45352;-75
2021/12/03 07:00:52;;;;;;;;;16.25;13.75;;;;;2.74;82.33;100925.91;5121083;27;45879;-75
2021/12/03 07:03:18;;;;;;;;;13.25;13.25;;;;;2.72;82.99;100922.53;5121346;27;45362;-78
2021/12/03 07:05:44;;;;;;;;;12.00;12.00;;;;;2.80;82.29;100932.47;5121164;27;47462;-76
2021/12/03 07:08:10;;;;;;;;;11.25;8.50;;;;;2.78;82.41;100927.31;5122467;27;45423;-76
2021/12/03 07:10:36;;;;;;;;;13.00;13.00;;;;;2.76;82.81;100936.28;5121390;27;45642;-79
2021/12/03 07:13:02;;;;;;;;;12.75;12.75;;;;;2.73;82.64;100936.53;5122757;27;45353;-78
2021/12/03 07:15:27;;;;;;;;;14.25;13.00;;;;;2.74;82.01;100932.94;5122092;27;45411;-77
2021/12/03 07:17:53;;;;;;;;;14.00;12.00;;;;;2.75;81.97;100939.84;5122423;27;45411;-77
2021/12/03 07:20:20;;;;;;;;;16.75;15.25;;;;;2.73;82.45;100933.91;5122642;27;45260;-77
2021/12/03 07:22:46;;;;;;;;;16.50;16.50;;;;;2.65;82.11;100930.06;5123562;27;45163;-77
2021/12/03 07:25:11;;;;;;;;;15.50;14.00;;;;;2.68;82.24;100936.88;5121040;27;46411;-77
2021/12/03 07:27:37;;;;;;;;;15.25;15.25;;;;;2.61;82.43;100920.75;5122408;27;46091;-77
2021/12/03 07:30:05;;;;;;;;;12.00;12.00;;;;;2.64;82.21;100923.13;5122455;27;45364;-76
2021/12/03 07:32:31;;;;;;;;;12.25;12.25;;;;;2.72;82.12;100929.59;5121032;27;45354;-74
2021/12/03 07:34:57;;;;;;;;;18.00;15.00;;;;;2.73;82.76;100929.47;5120607;27;45412;-77
2021/12/03 07:37:23;;;;;;;;;11.25;11.25;;;;;2.71;82.53;100931.38;5103385;27;48287;-77
2021/12/03 07:39:48;;;;;;;;;17.25;16.25;;;;;2.81;82.85;100931.50;5122165;27;45222;-77
2021/12/03 07:42:13;;;;;;;;;11.50;11.25;;;;;2.75;82.61;100918.84;5104220;27;45246;-76
2021/12/03 07:44:39;;;;;;;;;16.25;12.25;;;;;2.78;82.43;100922.09;5101030;27;45519;-74
2021/12/03 07:47:04;;;;;;;;;12.00;12.00;;;;;2.92;82.14;100935.09;5100084;27;47962;-74
2021/12/03 07:49:30;;;;;;;;;18.25;14.50;;;;;2.86;82.37;100923.28;5099403;27;45351;-76
2021/12/03 07:51:55;;;;;;;;;15.75;15.75;;;;;3.00;82.62;100932.72;5101619;27;45235;-78
2021/12/03 07:54:22;;;;;;;;;18.75;16.75;;;;;3.02;82.46;100936.03;5099897;27;46405;-76
2021/12/03 07:56:47;;;;;;;;;16.00;15.50;;;;;3.03;82.32;100937.72;5101163;27;46624;-77
2021/12/03 07:59:13;;;;;;;;;20.25;19.25;;;;;3.10;81.84;100944.16;5099430;27;46022;-76
2021/12/03 08:01:46;;;;;;;;;20.25;16.25;;;;;3.15;82.43;100944.63;5100471;27;45383;-77
2021/12/03 08:04:13;;;;;;;;;52.75;44.75;;;;;3.13;82.37;100941.31;5101328;27;45806;-75
2021/12/03 08:06:40;;;;;;;;;28.75;28.75;;;;;3.14;82.33;100936.88;5097741;27;48633;-75
2021/12/03 08:09:10;;;;;;;;;18.00;14.25;;;;;3.18;81.66;100924.34;5097792;27;45644;-75
2021/12/03 08:11:38;;;;;;;;;18.25;16.25;;;;;3.25;82.08;100923.75;5099323;27;45375;-75
2021/12/03 08:14:03;;;;;;;;;15.25;13.75;;;;;3.25;81.67;100915.84;5100741;27;45534;-75
2021/12/03 08:16:29;;;;;;;;;13.00;12.00;;;;;3.27;82.03;100915.72;5099309;27;46939;-75
2021/12/03 08:18:54;;;;;;;;;13.25;13.25;;;;;3.31;82.78;100925.03;5100736;27;45316;-75
2021/12/03 08:21:20;;;;;;;;;12.75;12.75;;;;;3.26;81.80;100917.50;5099799;27;45267;-75
2021/12/03 08:23:47;;;;;;;;;14.00;13.00;;;;;3.28;81.98;100922.66;5099589;27;47262;-75
2021/12/03 08:26:13;;;;;;;;;14.75;13.75;;;;;3.32;81.65;100920.63;5099512;27;47961;-75
2021/12/03 08:28:38;;;;;;;;;13.50;12.25;;;;;3.47;81.37;100944.84;5100578;27;45324;-74
2021/12/03 08:31:03;;;;;;;;;25.00;22.75;;;;;3.46;81.39;100946.63;5101004;27;45292;-74
2021/12/03 08:33:29;;;;;;;;;20.25;17.75;;;;;3.41;81.96;100936.47;5100546;27;45509;-75
2021/12/03 08:35:54;;;;;;;;;19.75;18.25;;;;;3.50;81.54;100940.16;5100647;27;45600;-75
2021/12/03 08:38:19;;;;;;;;;20.75;15.50;;;;;3.58;81.35;100952.69;5100721;27;45284;-75
2021/12/03 08:40:45;;;;;;;;;18.25;17.00;;;;;3.58;81.45;100930.81;5102970;27;45438;-75
2021/12/03 08:43:10;;;;;;;;;20.00;18.25;;;;;3.51;81.27;100920.00;5119768;27;46318;-74
2021/12/03 08:45:37;;;;;;;;;14.00;12.75;;;;;3.60;81.55;100929.78;5120831;27;45329;-75
2021/12/03 08:48:05;;;;;;;;;14.00;12.50;;;;;3.60;81.91;100929.78;5121089;27;45274;-74
2021/12/03 08:50:37;;;;;;;;;14.25;13.75;;;;;3.62;82.08;100927.00;5121424;27;45250;-74
2021/12/03 08:55:31;;;;;;;;;16.25;15.00;;;;;3.71;81.74;100938.59;5121227;27;45316;-74
2021/12/03 08:57:56;;;;;;;;;11.50;11.50;;;;;3.70;81.46;100926.38;5121520;27;45336;-74
2021/12/03 09:00:22;;;;;;;;;9.75;9.50;;;;;3.77;81.94;100935.47;5119699;27;45400;-75
2021/12/03 09:02:48;;;;;;;;;14.50;14.25;;;;;3.86;81.76;100939.13;5120952;27;45448;-75
2021/12/03 09:05:14;;;;;;;;;15.00;14.00;;;;;3.82;81.68;100922.75;5119461;27;47507;-75
2021/12/03 09:07:40;;;;;;;;;15.00;14.25;;;;;3.94;80.75;100935.84;5119549;27;45344;-75
2021/12/03 09:10:13;;;;;;;;;13.25;13.00;;;;;3.99;81.17;100929.28;5121200;27;45302;-75
2021/12/03 09:12:42;;;;;;;;;14.75;14.75;;;;;4.01;81.32;100931.78;5120950;27;45274;-75
2021/12/03 09:15:10;;;;;;;;;13.00;10.00;;;;;4.00;81.15;100933.56;5120824;27;45690;-75
2021/12/03 09:20:28;;;;;;;;;13.50;11.25;;;;;4.06;80.98;100926.13;5124810;27;45288;-76
2021/12/03 09:22:58;;;;;;;;;15.00;12.67;;;;;4.08;81.31;100911.06;5124130;27;45368;-75
2021/12/03 09:25:31;;;;;;;;;14.25;12.00;;;;;4.09;80.65;100905.66;5124659;27;45498;-76
2021/12/03 09:27:59;;;;;;;;;13.67;12.33;;;;;4.19;80.19;100921.50;5124871;27;45330;-76
2021/12/03 09:30:25;;;;;;;;;15.00;15.00;;;;;4.20;80.40;100909.19;5123728;27;45407;-78
2021/12/03 09:32:56;;;;;;;;;14.00;12.00;;;;;4.23;80.65;100896.63;5123922;27;45492;-76
2021/12/03 09:35:23;;;;;;;;;15.00;13.75;;;;;4.33;80.23;100903.72;5124236;27;45415;-76
2021/12/03 09:37:49;;;;;;;;;18.50;16.25;;;;;4.38;80.68;100898.94;5124190;27;45281;-76
2021/12/03 09:40:20;;;;;;;;;13.67;11.00;;;;;4.37;80.05;100894.63;5124129;27;45336;-76
2021/12/03 09:42:47;;;;;;;;;18.25;17.75;;;;;4.43;79.92;100896.72;5102900;27;45282;-76
2021/12/03 09:45:13;;;;;;;;;15.50;15.50;;;;;4.40;79.82;100889.94;5102857;27;45295;-76
2021/12/03 09:47:38;;;;;;;;;10.67;10.33;;;;;4.46;80.21;100895.66;5103137;27;45160;-76
2021/12/03 09:50:11;;;;;;;;;13.25;13.25;;;;;4.44;80.45;100879.16;5101982;27;45287;-75
2021/12/03 09:52:50;;;;;;;;;13.00;13.00;;;;;4.52;80.46;100884.59;5103557;27;45560;-76
2021/12/03 09:55:16;;;;;;;;;14.50;13.25;;;;;4.54;80.19;100883.50;5103067;27;46079;-78
2021/12/03 09:57:57;;;;;;;;;15.00;14.00;;;;;4.64;80.16;100886.16;5101650;27;45366;-77
2021/12/03 10:19:27;;;;;;;;;15.00;12.67;;;;;4.66;79.51;100864.97;5123398;27;45221;-77
2021/12/03 10:22:24;;;;;;;;;8.00;8.00;;;;;4.64;79.25;100857.22;5123641;27;45384;-77
2021/12/03 10:33:15;;;;;;;;;10.33;10.00;;;;;4.67;78.69;100843.78;5123284;27;45459;-75
2021/12/03 10:49:20;;;;;;;;;10.33;9.33;;;;;4.71;81.03;100817.19;5125841;27;45226;-74
2021/12/03 10:51:51;;;;;;;;;16.00;14.67;;;;;4.66;81.05;100807.06;5125887;27;45253;-75
2021/12/03 11:00:27;;;;;;;;;10.33;10.00;;;;;4.71;81.29;100790.84;5125578;27;45836;-75
2021/12/03 11:27:57;;;;;;;;;14.00;11.00;;;;;4.77;81.10;100750.81;5123354;27;45242;-76
2021/12/03 11:52:34;;;;;;;;;9.00;9.00;;;;;4.29;84.11;100704.00;5092321;27;45385;-79
2021/12/03 12:09:57;;;;;;;;;10.33;7.67;;;;;4.26;84.08;100677.13;5101067;27;45267;-79
2021/12/03 12:20:06;;;;;;;;;9.00;9.00;;;;;4.16;84.42;100630.56;5112610;27;45206;-78
2021/12/03 13:13:12;;;;;;;;;0.67;0.00;;;;;4.26;86.80;100556.09;5120571;27;45360;-78
2021/12/03 13:27:01;;;;;;;;;7.67;7.00;;;;;4.21;86.30;100535.47;5119941;27;45377;-77
2021/12/03 14:51:42;;;;;;;;;4.00;4.00;;;;;4.48;87.33;100383.91;5081650;28;45956;-76
2021/12/03 14:56:47;;;;;;;;;3.67;3.67;;;;;4.54;87.48;100383.34;5081692;28;45292;-75
2021/12/03 14:59:22;;;;;;;;;4.67;4.67;;;;;4.57;87.29;100373.50;5082892;27;46115;-76
2021/12/03 15:02:27;;;;;;;;;5.00;5.00;;;;;4.61;87.32;100372.25;5121240;27;47621;-76
2021/12/03 15:07:42;;;;;;;;;4.67;3.00;;;;;4.66;87.11;100362.94;5090424;27;45425;-76
2021/12/03 15:10:14;;;;;;;;;3.00;3.00;;;;;4.66;87.27;100352.41;5121135;27;45905;-75
2021/12/03 15:24:36;;;;;;;;;2.67;2.67;;;;;4.77;87.66;100340.03;5122192;27;45343;-75
2021/12/03 15:33:54;;;;;;;;;4.00;4.00;;;;;4.82;86.68;100340.41;5121746;27;45317;-76
2021/12/03 15:39:24;;;;;;;;;4.00;4.00;;;;;4.80;87.40;100342.38;5110448;27;45359;-76
2021/12/03 16:03:44;;;;;;;;;3.00;2.00;;;;;4.76;88.03;100312.06;5100933;27;45309;-77
2021/12/03 16:08:39;;;;;;;;;6.67;6.67;;;;;4.77;88.81;100309.28;5100902;27;45338;-78
2021/12/03 16:17:02;;;;;;;;;11.67;10.67;;;;;4.86;87.98;100290.94;5099008;27;45376;-78
2021/12/03 16:43:55;;;;;;;;;10.00;10.00;;;;;4.99;88.11;100215.00;5120747;27;45444;-79
2021/12/03 16:52:04;;;;;;;;;4.00;4.00;;;;;5.03;88.18;100202.38;5120897;27;45499;-78
2021/12/03 16:54:12;;;;;;;;;4.00;4.00;;;;;5.10;88.33;100202.59;5112511;27;45338;-78
2021/12/03 16:56:53;;;;;;;;;4.00;3.33;;;;;5.02;88.19;100191.00;5120952;27;45271;-78
2021/12/03 16:59:19;;;;;;;;;4.67;4.00;;;;;5.04;88.65;100185.59;5119240;27;47383;-78
2021/12/03 17:21:06;;;;;;;;;4.00;4.00;;;;;5.15;88.03;100166.91;5099838;27;45343;-79
2021/12/03 17:49:47;;;;;;;;;2.67;2.67;;;;;5.26;87.46;100117.56;5118083;27;45762;-81
2021/12/03 17:59:51;;;;;;;;;4.00;4.00;;;;;5.36;87.95;100110.38;5102659;27;45282;-79
2021/12/03 18:10:50;;;;;;;;;4.33;4.33;;;;;5.40;88.40;100090.66;5102922;27;45373;-79
2021/12/03 18:51:07;;;;;;;;;4.00;4.00;;;;;5.61;88.13;100005.09;5101228;27;45273;-78